createdAt,value
2019-02-20T00:00:54.243Z,7.30
2019-02-20T00:03:22.555Z,7.31
2019-02-20T00:05:50.748Z,7.30
2019-02-20T00:08:19.299Z,7.30
2019-02-20T00:10:47.496Z,7.30
2019-02-20T00:13:15.701Z,7.29
2019-02-20T00:15:43.907Z,7.30
2019-02-20T00:18:12.410Z,7.28
2019-02-20T00:20:40.610Z,7.27
2019-02-20T00:23:09.168Z,7.26
2019-02-20T00:25:37.373Z,7.25
2019-02-20T00:28:05.579Z,7.22
2019-02-20T00:30:35.415Z,7.22
2019-02-20T00:33:03.612Z,7.21
2019-02-20T00:35:31.827Z,7.22
2019-02-20T00:38:00.019Z,7.23
2019-02-20T00:40:28.240Z,7.25
2019-02-20T00:42:56.720Z,7.25
2019-02-20T00:45:43.025Z,7.25
2019-02-20T00:48:12.862Z,7.27
2019-02-20T00:50:43.151Z,7.26
2019-02-20T00:53:15.959Z,7.25
2019-02-20T00:55:44.152Z,7.23
2019-02-20T00:58:12.359Z,7.25
2019-02-20T01:00:40.563Z,7.24
2019-02-20T01:03:08.759Z,7.24
2019-02-20T01:05:38.946Z,7.25
2019-02-20T01:08:07.171Z,7.25
2019-02-20T01:10:35.364Z,7.25
2019-02-20T01:13:03.577Z,7.25
2019-02-20T01:15:32.158Z,7.26
2019-02-20T01:18:00.395Z,7.28
2019-02-20T01:20:28.596Z,7.28
2019-02-20T01:22:59.881Z,7.30
2019-02-20T01:25:26.719Z,7.31
2019-02-20T01:27:54.943Z,7.32
2019-02-20T01:30:23.449Z,7.32
2019-02-20T01:32:51.660Z,7.31
2019-02-20T01:35:19.870Z,7.31
2019-02-20T01:37:48.159Z,7.32
2019-02-20T01:40:16.348Z,7.31
2019-02-20T01:42:44.567Z,7.30
2019-02-20T01:45:12.771Z,7.30
2019-02-20T01:47:40.971Z,7.30
2019-02-20T01:50:09.177Z,7.31
2019-02-20T01:52:37.371Z,7.29
2019-02-20T01:55:07.780Z,7.31
2019-02-20T01:57:36.254Z,7.30
2019-02-20T02:00:07.084Z,7.29
2019-02-20T02:02:35.290Z,7.28
2019-02-20T02:05:03.546Z,7.28
2019-02-20T02:07:31.757Z,7.28
2019-02-20T02:09:59.943Z,7.29
2019-02-20T02:12:28.146Z,7.28
2019-02-20T02:14:58.267Z,7.25
2019-02-20T02:17:26.480Z,7.25
2019-02-20T02:19:54.682Z,7.23
2019-02-20T02:22:22.886Z,7.21
2019-02-20T02:24:51.120Z,7.19
2019-02-20T02:27:19.318Z,7.16
2019-02-20T02:29:47.515Z,7.13
2019-02-20T02:32:15.733Z,7.11
2019-02-20T02:34:43.921Z,7.12
2019-02-20T02:37:12.128Z,7.11
2019-02-20T02:39:40.332Z,7.10
2019-02-20T02:42:08.538Z,7.11
2019-02-20T02:44:36.737Z,7.11
2019-02-20T02:47:04.951Z,7.11
2019-02-20T02:49:33.152Z,7.12
2019-02-20T02:52:01.695Z,7.11
2019-02-20T02:54:29.891Z,7.13
2019-02-20T02:56:58.098Z,7.13
2019-02-20T02:59:26.290Z,7.13
2019-02-20T03:01:54.499Z,7.13
2019-02-20T03:04:22.691Z,7.12
2019-02-20T03:06:50.898Z,7.12
2019-02-20T03:09:19.098Z,7.12
2019-02-20T03:11:47.310Z,7.13
2019-02-20T03:14:15.504Z,7.13
2019-02-20T03:16:43.714Z,7.13
2019-02-20T03:19:12.211Z,7.13
2019-02-20T03:21:40.412Z,7.14
2019-02-20T03:24:08.607Z,7.13
2019-02-20T03:26:36.834Z,7.14
2019-02-20T03:29:05.011Z,7.13
2019-02-20T03:31:33.496Z,7.12
2019-02-20T03:34:01.691Z,7.10
2019-02-20T03:36:29.902Z,7.08
2019-02-20T03:38:58.097Z,7.07
2019-02-20T03:41:26.605Z,7.05
2019-02-20T03:43:54.798Z,7.05
2019-02-20T03:46:23.038Z,7.03
2019-02-20T03:48:51.190Z,7.03
2019-02-20T03:51:19.706Z,7.00
2019-02-20T03:53:51.403Z,6.97
2019-02-20T03:56:17.902Z,6.97
2019-02-20T03:58:46.114Z,6.97
2019-02-20T04:01:14.300Z,6.95
2019-02-20T04:03:42.507Z,6.95
2019-02-20T04:06:10.697Z,6.95
2019-02-20T04:08:38.914Z,6.93
2019-02-20T04:11:07.096Z,6.91
2019-02-20T04:13:35.310Z,6.90
2019-02-20T04:16:03.510Z,6.90
2019-02-20T04:18:31.976Z,6.89
2019-02-20T04:21:00.302Z,6.88
2019-02-20T04:23:28.507Z,6.88
2019-02-20T04:25:56.711Z,6.87
2019-02-20T04:28:24.917Z,6.86
2019-02-20T04:30:53.115Z,6.86
2019-02-20T04:33:21.372Z,6.87
2019-02-20T04:35:49.530Z,6.85
2019-02-20T04:38:17.736Z,6.83
2019-02-20T04:40:45.940Z,6.82
2019-02-20T04:43:14.143Z,6.80
2019-02-20T04:45:42.350Z,6.79
2019-02-20T04:48:10.903Z,6.80
2019-02-20T04:50:39.111Z,6.83
2019-02-20T04:53:07.310Z,6.82
2019-02-20T04:55:35.512Z,6.82
2019-02-20T04:58:17.522Z,6.82
2019-02-20T05:00:45.758Z,6.82
2019-02-20T05:03:13.956Z,6.83
2019-02-20T05:05:42.440Z,6.84
2019-02-20T05:08:10.634Z,6.84
2019-02-20T05:10:39.098Z,6.86
2019-02-20T05:13:07.578Z,6.86
2019-02-20T05:15:35.805Z,6.86
2019-02-20T05:18:04.001Z,6.86
2019-02-20T05:20:32.526Z,6.85
2019-02-20T05:23:00.713Z,6.85
2019-02-20T05:25:28.934Z,6.85
2019-02-20T05:27:57.131Z,6.86
2019-02-20T05:30:25.350Z,6.84
2019-02-20T05:32:53.546Z,6.84
2019-02-20T05:35:21.754Z,6.85
2019-02-20T05:37:49.950Z,6.85
2019-02-20T05:40:18.164Z,6.85
2019-02-20T05:42:48.284Z,6.85
2019-02-20T05:45:16.300Z,6.82
2019-02-20T05:47:44.775Z,6.81
2019-02-20T05:50:12.968Z,6.79
2019-02-20T05:52:41.175Z,6.78
2019-02-20T05:55:09.711Z,6.76
2019-02-20T05:57:37.918Z,6.76
2019-02-20T06:00:12.512Z,6.76
2019-02-20T06:02:40.743Z,6.76
2019-02-20T06:05:08.966Z,6.75
2019-02-20T06:07:37.443Z,6.75
2019-02-20T06:10:08.074Z,6.75
2019-02-20T06:12:36.294Z,6.74
2019-02-20T06:15:06.230Z,6.74
2019-02-20T06:17:34.750Z,6.75
2019-02-20T06:20:03.738Z,6.74
2019-02-20T06:22:31.941Z,6.75
2019-02-20T06:25:00.273Z,6.75
2019-02-20T06:27:28.412Z,6.74
2019-02-20T06:29:56.944Z,6.75
2019-02-20T06:32:25.147Z,6.75
2019-02-20T06:34:53.338Z,6.75
2019-02-20T06:37:21.556Z,6.77
2019-02-20T06:39:49.767Z,6.76
2019-02-20T06:42:17.964Z,6.76
2019-02-20T06:44:46.170Z,6.75
2019-02-20T06:47:14.673Z,6.75
2019-02-20T06:49:42.892Z,6.74
2019-02-20T06:52:11.081Z,6.74
2019-02-20T06:54:39.615Z,6.75
2019-02-20T06:57:07.812Z,6.75
2019-02-20T06:59:36.058Z,6.74
2019-02-20T07:02:04.249Z,6.73
2019-02-20T07:04:32.460Z,6.73
2019-02-20T07:07:06.784Z,6.72
2019-02-20T07:09:53.470Z,6.74
2019-02-20T07:12:30.919Z,6.75
2019-02-20T07:15:36.661Z,6.77
2019-02-20T07:18:23.097Z,6.79
2019-02-20T07:20:57.448Z,6.80
2019-02-20T07:23:43.901Z,6.80
2019-02-20T07:26:30.149Z,6.81
2019-02-20T07:29:01.595Z,6.84
2019-02-20T07:31:29.816Z,6.85
2019-02-20T07:33:58.352Z,6.88
2019-02-20T07:36:26.576Z,6.90
2019-02-20T07:38:54.774Z,6.94
2019-02-20T07:41:22.984Z,6.96
2019-02-20T07:43:51.183Z,6.97
2019-02-20T07:46:19.395Z,6.99
2019-02-20T07:48:47.941Z,7.01
2019-02-20T07:51:16.190Z,7.03
2019-02-20T07:53:44.384Z,7.06
2019-02-20T07:56:12.946Z,7.11
2019-02-20T07:58:41.149Z,7.14
2019-02-20T08:01:09.365Z,7.15
2019-02-20T08:03:37.572Z,7.19
2019-02-20T08:06:05.788Z,7.22
2019-02-20T08:08:33.987Z,7.25
2019-02-20T08:11:02.201Z,7.27
2019-02-20T08:13:39.117Z,7.29
2019-02-20T08:16:00.613Z,7.30
2019-02-20T08:18:28.815Z,7.33
2019-02-20T08:20:57.017Z,7.35
2019-02-20T08:23:25.227Z,7.35
2019-02-20T08:25:53.427Z,7.34
2019-02-20T08:28:21.642Z,7.34
2019-02-20T08:30:50.154Z,7.35
2019-02-20T08:33:18.369Z,7.38
2019-02-20T08:35:46.909Z,7.41
2019-02-20T08:38:15.127Z,7.45
2019-02-20T08:40:43.328Z,7.49
2019-02-20T08:43:11.837Z,7.54
2019-02-20T08:45:40.028Z,7.56
2019-02-20T08:48:08.239Z,7.58
2019-02-20T08:50:36.438Z,7.58
2019-02-20T08:53:04.652Z,7.59
2019-02-20T08:55:32.852Z,7.59
2019-02-20T08:58:01.068Z,7.57
2019-02-20T09:00:29.272Z,7.56
2019-02-20T09:02:57.487Z,7.57
2019-02-20T09:05:26.125Z,7.58
2019-02-20T09:07:54.338Z,7.63
2019-02-20T09:10:22.551Z,7.66
2019-02-20T09:12:51.054Z,7.69
2019-02-20T09:15:19.535Z,7.74
2019-02-20T09:17:47.728Z,7.80
2019-02-20T09:20:15.935Z,7.87
2019-02-20T09:22:44.130Z,7.95
2019-02-20T09:25:19.530Z,8.02
2019-02-20T09:27:42.552Z,8.06
2019-02-20T09:30:15.019Z,8.10
2019-02-20T09:32:43.517Z,8.15
2019-02-20T09:35:11.715Z,8.18
2019-02-20T09:37:39.933Z,8.18
2019-02-20T09:40:17.483Z,8.18
2019-02-20T09:42:51.058Z,8.19
2019-02-20T09:45:19.259Z,8.21
2019-02-20T09:47:47.532Z,8.28
2019-02-20T09:50:15.741Z,8.35
2019-02-20T09:52:51.936Z,8.38
2019-02-20T09:55:14.682Z,8.43
2019-02-20T09:57:42.932Z,8.47
2019-02-20T10:00:13.717Z,8.49
2019-02-20T10:02:42.181Z,8.47
2019-02-20T10:05:11.596Z,8.49
2019-02-20T10:07:39.792Z,8.49
2019-02-20T10:10:10.384Z,8.45
2019-02-20T10:12:38.865Z,8.43
2019-02-20T10:15:15.555Z,8.42
2019-02-20T10:17:43.752Z,8.41
2019-02-20T10:20:11.949Z,8.41
2019-02-20T10:22:40.154Z,8.44
2019-02-20T10:25:10.694Z,8.48
2019-02-20T10:27:38.897Z,8.53
2019-02-20T10:30:10.396Z,8.57
2019-02-20T10:32:38.612Z,8.62
2019-02-20T10:35:08.645Z,8.65
2019-02-20T10:37:36.863Z,8.65
2019-02-20T10:40:07.410Z,8.68
2019-02-20T10:42:35.569Z,8.74
2019-02-20T10:45:05.197Z,8.76
2019-02-20T10:47:33.413Z,8.77
2019-02-20T10:50:01.971Z,8.77
2019-02-20T10:52:30.190Z,8.78
2019-02-20T10:54:58.388Z,8.80
2019-02-20T10:57:26.601Z,8.81
2019-02-20T10:59:54.800Z,8.82
2019-02-20T11:02:23.028Z,8.84
2019-02-20T11:04:51.223Z,8.85
2019-02-20T11:07:22.260Z,8.86
2019-02-20T11:09:50.595Z,8.88
2019-02-20T11:12:19.170Z,8.78
2019-02-20T11:14:48.923Z,8.86
2019-02-20T11:17:17.440Z,8.84
2019-02-20T11:19:48.599Z,8.83
2019-02-20T11:22:16.801Z,8.84
2019-02-20T11:24:45.317Z,8.84
2019-02-20T11:27:13.499Z,8.87
2019-02-20T11:29:41.708Z,8.90
2019-02-20T11:32:09.906Z,8.92
2019-02-20T11:34:38.452Z,8.97
2019-02-20T11:37:06.648Z,9.01
2019-02-20T11:39:37.734Z,9.04
2019-02-20T11:42:04.776Z,9.05
2019-02-20T11:44:32.986Z,9.06
2019-02-20T11:47:01.535Z,9.10
2019-02-20T11:49:29.749Z,9.13
2019-02-20T11:51:57.951Z,9.17
2019-02-20T11:54:26.470Z,9.22
2019-02-20T11:56:55.112Z,9.25
2019-02-20T11:59:23.317Z,9.25
2019-02-20T12:01:51.598Z,9.20
2019-02-20T12:04:19.799Z,9.16
2019-02-20T12:06:48.010Z,9.10
2019-02-20T12:09:16.204Z,9.08
2019-02-20T12:11:44.412Z,9.08
2019-02-20T12:14:12.612Z,9.14
2019-02-20T12:16:40.837Z,9.15
2019-02-20T12:19:09.344Z,9.13
2019-02-20T12:21:37.559Z,9.15
2019-02-20T12:24:05.783Z,9.19
2019-02-20T12:26:35.276Z,9.24
2019-02-20T12:29:03.656Z,9.30
2019-02-20T12:31:32.148Z,9.33
2019-02-20T12:34:01.624Z,9.35
2019-02-20T12:36:29.944Z,9.39
2019-02-20T12:38:58.140Z,9.39
2019-02-20T12:41:26.353Z,9.39
2019-02-20T12:43:54.549Z,9.37
2019-02-20T12:46:22.755Z,9.36
2019-02-20T12:48:51.312Z,9.39
2019-02-20T12:51:21.162Z,9.46
2019-02-20T12:53:49.352Z,9.53
2019-02-20T12:56:17.881Z,9.57
2019-02-20T12:58:46.093Z,9.63
2019-02-20T13:01:14.312Z,9.72
2019-02-20T13:03:42.542Z,9.85
2019-02-20T13:06:10.724Z,9.96
2019-02-20T13:08:38.941Z,10.00
2019-02-20T13:11:07.440Z,10.03
2019-02-20T13:13:35.660Z,10.01
2019-02-20T13:16:09.437Z,10.00
2019-02-20T13:18:33.796Z,10.03
2019-02-20T13:21:02.283Z,10.09
2019-02-20T13:23:30.802Z,10.15
2019-02-20T13:25:59.014Z,10.18
2019-02-20T13:28:28.594Z,10.23
2019-02-20T13:30:56.881Z,10.29
2019-02-20T13:33:25.094Z,10.32
2019-02-20T13:35:53.296Z,10.34
2019-02-20T13:38:21.789Z,10.36
2019-02-20T13:40:49.997Z,10.39
2019-02-20T13:43:18.578Z,10.42
2019-02-20T13:45:48.218Z,10.41
2019-02-20T13:48:17.263Z,10.41
2019-02-20T13:50:45.489Z,10.44
2019-02-20T13:53:14.343Z,10.44
2019-02-20T13:55:42.681Z,10.46
2019-02-20T13:58:11.705Z,10.57
2019-02-20T14:00:39.986Z,10.64
2019-02-20T14:03:08.181Z,10.65
2019-02-20T14:05:36.392Z,10.72
2019-02-20T14:08:04.591Z,10.85
2019-02-20T14:10:32.815Z,10.96
2019-02-20T14:13:01.029Z,11.07
2019-02-20T14:15:29.236Z,11.14
2019-02-20T14:17:57.442Z,11.19
2019-02-20T14:20:25.665Z,11.19
2019-02-20T14:22:53.868Z,11.21
2019-02-20T14:25:22.420Z,11.29
2019-02-20T14:27:50.641Z,11.39
2019-02-20T14:30:18.848Z,11.38
2019-02-20T14:32:47.068Z,11.31
2019-02-20T14:35:15.837Z,11.14
2019-02-20T14:37:44.321Z,11.04
2019-02-20T14:40:12.519Z,11.11
2019-02-20T14:42:40.740Z,11.22
2019-02-20T14:45:14.218Z,11.39
2019-02-20T14:47:42.753Z,11.56
2019-02-20T14:50:12.125Z,11.72
2019-02-20T14:52:40.551Z,11.73
2019-02-20T14:55:10.349Z,11.58
2019-02-20T14:57:38.624Z,11.37
2019-02-20T15:00:10.082Z,11.21
2019-02-20T15:02:38.575Z,11.05
2019-02-20T15:05:07.450Z,10.92
2019-02-20T15:07:35.966Z,10.79
2019-02-20T15:10:05.810Z,10.60
2019-02-20T15:12:34.012Z,10.44
2019-02-20T15:15:10.299Z,10.34
2019-02-20T15:17:32.510Z,10.29
2019-02-20T15:20:00.710Z,10.27
2019-02-20T15:22:28.929Z,10.26
2019-02-20T15:24:57.128Z,10.24
2019-02-20T15:27:28.685Z,10.22
2019-02-20T15:29:55.297Z,10.20
2019-02-20T15:32:23.520Z,10.18
2019-02-20T15:34:51.728Z,10.17
2019-02-20T15:37:19.923Z,10.16
2019-02-20T15:39:48.847Z,10.15
2019-02-20T15:42:17.646Z,10.13
2019-02-20T15:44:47.264Z,10.08
2019-02-20T15:47:15.835Z,10.04
2019-02-20T15:49:49.024Z,9.98
2019-02-20T15:52:19.709Z,9.93
2019-02-20T15:54:48.688Z,9.89
2019-02-20T15:57:19.081Z,9.87
2019-02-20T15:59:50.467Z,9.84
2019-02-20T16:02:24.529Z,9.82
2019-02-20T16:04:56.276Z,9.78
2019-02-20T16:07:26.830Z,9.78
2019-02-20T16:10:03.502Z,9.76
2019-02-20T16:12:34.109Z,9.75
2019-02-20T16:15:03.362Z,9.74
2019-02-20T16:17:34.064Z,9.74
2019-02-20T16:20:02.714Z,9.72
2019-02-20T16:22:31.829Z,9.72
2019-02-20T16:25:01.010Z,9.71
2019-02-20T16:27:29.431Z,9.71
2019-02-20T16:29:59.439Z,9.71
2019-02-20T16:32:27.775Z,9.70
2019-02-20T16:34:56.205Z,9.68
2019-02-20T16:37:28.140Z,9.64
2019-02-20T16:39:56.551Z,9.58
2019-02-20T16:42:25.038Z,9.50
2019-02-20T16:44:56.084Z,9.44
2019-02-20T16:47:24.992Z,9.38
2019-02-20T16:49:56.857Z,9.36
2019-02-20T16:52:28.197Z,9.34
2019-02-20T16:54:57.100Z,9.34
2019-02-20T16:57:28.874Z,9.34
2019-02-20T16:59:57.566Z,9.35
2019-02-20T17:02:25.821Z,9.37
2019-02-20T17:04:59.324Z,9.38
2019-02-20T17:07:24.269Z,9.40
2019-02-20T17:09:52.845Z,9.42
2019-02-20T17:12:21.324Z,9.42
2019-02-20T17:14:49.630Z,9.44
2019-02-20T17:17:18.242Z,9.45
2019-02-20T17:19:46.431Z,9.44
2019-02-20T17:22:14.601Z,9.45
2019-02-20T17:24:43.223Z,9.46
2019-02-20T17:27:11.715Z,9.47
2019-02-20T17:29:40.189Z,9.47
2019-02-20T17:32:08.663Z,9.47
2019-02-20T17:34:36.894Z,9.48
2019-02-20T17:37:05.173Z,9.49
2019-02-20T17:39:33.740Z,9.49
2019-02-20T17:42:02.741Z,9.49
2019-02-20T17:44:31.294Z,9.49
2019-02-20T17:46:59.879Z,9.47
2019-02-20T17:49:28.318Z,9.44
2019-02-20T17:51:56.719Z,9.42
2019-02-20T17:54:25.154Z,9.41
2019-02-20T17:56:53.928Z,9.40
2019-02-20T17:59:24.338Z,9.40
2019-02-20T18:02:01.933Z,9.40
2019-02-20T18:04:30.383Z,9.40
2019-02-20T18:07:24.498Z,9.41
2019-02-20T18:09:53.302Z,9.40
2019-02-20T18:12:26.091Z,9.41
2019-02-20T18:14:54.560Z,9.41
2019-02-20T18:17:23.688Z,9.42
2019-02-20T18:19:52.452Z,9.43
2019-02-20T18:22:20.910Z,9.43
2019-02-20T18:24:49.316Z,9.44
2019-02-20T18:27:17.752Z,9.43
2019-02-20T18:29:46.161Z,9.42
2019-02-20T18:32:17.788Z,9.42
2019-02-20T18:34:46.266Z,9.42
2019-02-20T18:37:16.365Z,9.41
2019-02-20T18:39:44.816Z,9.41
2019-02-20T18:42:13.226Z,9.40
2019-02-20T18:44:41.730Z,9.40
2019-02-20T18:47:10.125Z,9.40
2019-02-20T18:49:53.874Z,9.38
2019-02-20T18:55:18.768Z,9.40
2019-02-20T18:57:49.018Z,9.38
2019-02-20T19:00:26.749Z,9.40
2019-02-20T19:02:56.676Z,9.39
2019-02-20T19:05:28.953Z,9.39
2019-02-20T19:07:57.837Z,9.38
2019-02-20T19:10:35.704Z,9.36
2019-02-20T19:13:34.630Z,9.35
2019-02-20T19:16:25.737Z,9.36
2019-02-20T19:19:12.304Z,9.36
2019-02-20T19:21:57.062Z,9.37
2019-02-20T19:24:57.992Z,9.38
2019-02-20T19:27:31.773Z,9.40
2019-02-20T19:30:18.604Z,9.40
2019-02-20T19:32:52.226Z,9.40
2019-02-20T19:35:27.188Z,9.40
2019-02-20T19:38:07.576Z,9.40
2019-02-20T19:40:59.132Z,9.40
2019-02-20T19:43:33.685Z,9.39
2019-02-20T19:46:32.834Z,9.40
2019-02-20T19:49:38.709Z,9.40
2019-02-20T19:52:36.001Z,9.38
2019-02-20T19:55:23.810Z,9.37
2019-02-20T19:58:10.666Z,9.35
2019-02-20T20:01:01.798Z,9.35
2019-02-20T20:03:59.626Z,9.32
2019-02-20T20:06:41.933Z,9.31
2019-02-20T20:09:19.699Z,9.29
2019-02-20T20:12:09.564Z,9.30
2019-02-20T20:14:52.790Z,9.29
2019-02-20T20:17:39.408Z,9.29
2019-02-20T20:20:11.268Z,9.27
2019-02-20T20:22:45.816Z,9.27
2019-02-20T20:25:29.328Z,9.27
2019-02-20T20:28:19.019Z,9.26
2019-02-20T20:31:07.896Z,9.26
2019-02-20T20:33:57.140Z,9.23
2019-02-20T20:36:45.203Z,9.20
2019-02-20T20:39:25.692Z,9.17
2019-02-20T20:42:17.250Z,9.15
2019-02-20T20:45:12.874Z,9.13
2019-02-20T20:47:44.337Z,9.12
2019-02-20T20:50:36.403Z,9.11
2019-02-20T20:53:16.511Z,9.11
2019-02-20T20:56:07.823Z,9.10
2019-02-20T20:59:03.211Z,9.11
2019-02-20T21:01:43.756Z,9.12
2019-02-20T21:04:31.588Z,9.14
2019-02-20T21:07:06.253Z,9.16
2019-02-20T21:09:55.937Z,9.18
2019-02-20T21:12:27.404Z,9.19
2019-02-20T21:15:02.570Z,9.18
2019-02-20T21:17:48.791Z,9.19
2019-02-20T21:20:44.422Z,9.20
2019-02-20T21:23:27.664Z,9.19
2019-02-20T21:26:04.921Z,9.19
2019-02-20T21:28:55.969Z,9.20
2019-02-20T21:32:01.986Z,9.21
2019-02-20T21:35:02.141Z,9.22
2019-02-20T21:37:55.053Z,9.23
2019-02-20T21:40:42.703Z,9.22
2019-02-20T21:43:28.976Z,9.24
2019-02-20T21:46:20.354Z,9.24
2019-02-20T21:48:57.726Z,9.23
2019-02-20T21:51:49.747Z,9.23
2019-02-20T21:54:33.067Z,9.22
2019-02-20T21:57:04.541Z,9.23
2019-02-20T22:00:01.772Z,9.22
2019-02-20T22:02:42.073Z,9.21
2019-02-20T22:05:25.292Z,9.20
2019-02-20T22:07:59.683Z,9.19
2019-02-20T22:10:33.691Z,9.19
2019-02-20T22:13:27.873Z,9.18
2019-02-20T22:16:21.847Z,9.17
2019-02-20T22:18:59.216Z,9.17
2019-02-20T22:21:48.853Z,9.16
2019-02-20T22:24:31.874Z,9.15
2019-02-20T22:27:20.303Z,9.13
2019-02-20T22:30:14.213Z,9.11
2019-02-20T22:32:57.770Z,9.09
2019-02-20T22:35:50.182Z,9.07
2019-02-20T22:38:22.531Z,9.06
2019-02-20T22:40:53.965Z,9.05
2019-02-20T22:43:44.711Z,9.05
2019-02-20T22:46:19.072Z,9.04
2019-02-20T22:48:56.659Z,9.05
2019-02-20T22:51:53.108Z,9.03
2019-02-20T22:54:59.685Z,9.01
2019-02-20T22:57:46.294Z,9.01
2019-02-20T23:00:51.367Z,9.00
2019-02-20T23:03:34.470Z,9.02
2019-02-20T23:06:17.290Z,9.01
2019-02-20T23:09:07.961Z,9.00
2019-02-20T23:11:50.676Z,9.00
2019-02-20T23:14:43.900Z,8.99
2019-02-20T23:17:12.581Z,8.99
2019-02-20T23:19:41.377Z,8.99
2019-02-20T23:22:10.065Z,8.98
2019-02-20T23:24:38.471Z,8.97
2019-02-20T23:27:07.222Z,8.97
2019-02-20T23:29:35.910Z,8.98
2019-02-20T23:32:04.325Z,8.99
2019-02-20T23:34:33.077Z,9.00
2019-02-20T23:37:01.503Z,9.00
2019-02-20T23:39:29.914Z,9.00
2019-02-20T23:41:58.329Z,9.00
2019-02-20T23:44:26.751Z,9.00
2019-02-20T23:46:55.176Z,8.99
2019-02-20T23:49:23.582Z,8.97
2019-02-20T23:51:51.988Z,8.95
2019-02-20T23:54:20.408Z,8.94
2019-02-20T23:56:48.807Z,8.94
2019-02-20T23:59:17.609Z,8.93
